Time;durP1;ratioP1;P1;durP2;ratioP2;P2;SDS_P1;SDS_P2;PMS_P1;PMS_P2;Temp;Humidity;BMP_temperature;BMP_pressure;BME280_temperature;BME280_humidity;BME280_pressure;Samples;Min_cycle;Max_cycle;Signal;HPM_P1;HPM_P2
2021/03/17 00:00:21;;;;;;;;;;;;;;;3.36;64.07;98655.34;5016021;28;19956;-67
2021/03/17 00:02:46;;;;;;;;;;;;;;;3.34;64.78;98648.56;5015833;28;20317;-67
2021/03/17 00:05:12;;;;;;;;;;;;;;;3.28;64.36;98653.56;5016616;28;19929;-66
2021/03/17 00:07:38;;;;;;;;;;;;;;;3.34;64.04;98648.56;5015341;28;20000;-65
2021/03/17 00:10:04;;;;;;;;;;;;;;;3.34;64.51;98651.09;5015480;28;20023;-66
2021/03/17 00:12:29;;;;;;;;;;;;;;;3.34;64.93;98649.44;5016031;28;20278;-67
2021/03/17 00:14:55;;;;;;;;;;;;;;;3.31;65.50;98663.75;5016639;28;19988;-67
2021/03/17 00:17:20;;;;;;;;;;;;;;;3.27;65.15;98672.97;5014008;28;20272;-66
2021/03/17 00:19:45;;;;;;;;;;;;;;;3.27;65.64;98659.50;5014278;28;19959;-66
2021/03/17 00:22:10;;;;;;;;;;;;;;;3.25;65.59;98664.53;5016104;28;19917;-67
2021/03/17 00:24:36;;;;;;;;;;;;;;;3.29;65.61;98661.19;5015750;28;19925;-66
2021/03/17 00:27:01;;;;;;;;;;;;;;;3.30;65.95;98662.06;5015398;28;20202;-66
2021/03/17 00:29:26;;;;;;;;;;;;;;;3.29;65.95;98662.88;5014765;28;19949;-66
2021/03/17 00:31:52;;;;;;;;;;;;;;;3.23;66.13;98653.53;5015534;28;19928;-66
2021/03/17 00:34:17;;;;;;;;;;;;;;;3.20;65.80;98663.63;5015791;28;19933;-66
2021/03/17 00:36:43;;;;;;;;;;;;;;;3.34;65.65;98651.09;5013913;28;20225;-67
2021/03/17 00:39:08;;;;;;;;;;;;;;;3.30;65.63;98649.38;5015753;28;19918;-67
2021/03/17 00:41:33;;;;;;;;;;;;;;;3.17;66.39;98653.47;5015224;28;20017;-66
2021/03/17 00:43:58;;;;;;;;;;;;;;;3.14;66.71;98649.19;5016392;28;20178;-69
2021/03/17 00:46:24;;;;;;;;;;;;;;;3.06;67.72;98643.22;5015287;28;19918;-66
2021/03/17 00:48:49;;;;;;;;;;;;;;;3.07;67.99;98644.06;5015248;28;19932;-66
2021/03/17 00:51:14;;;;;;;;;;;;;;;3.13;67.18;98634.00;5015901;28;20302;-67
2021/03/17 00:53:40;;;;;;;;;;;;;;;3.16;67.50;98639.97;5015557;28;20418;-66
2021/03/17 00:56:05;;;;;;;;;;;;;;;3.20;67.18;98648.44;5014963;28;19922;-67
2021/03/17 00:58:30;;;;;;;;;;;;;;;3.15;67.51;98637.41;5019087;28;20199;-67
2021/03/17 01:00:55;;;;;;;;;;;;;;;3.12;68.07;98642.44;5014943;28;19917;-66
2021/03/17 01:03:21;;;;;;;;;;;;;;;3.12;67.95;98645.81;5018333;28;19930;-66
2021/03/17 01:05:46;;;;;;;;;;;;;;;3.15;67.84;98642.47;5016333;28;19941;-67
2021/03/17 01:08:12;;;;;;;;;;;;;;;3.08;68.50;98641.56;5019261;28;20294;-66
2021/03/17 01:10:39;;;;;;;;;;;;;;;3.08;67.61;98636.50;5018945;28;19936;-66
2021/03/17 01:13:05;;;;;;;;;;;;;;;3.16;67.68;98639.97;5017981;28;20262;-66
2021/03/17 01:15:31;;;;;;;;;;;;;;;3.13;67.40;98634.00;5019154;28;19944;-66
2021/03/17 01:17:56;;;;;;;;;;;;;;;3.16;67.77;98641.63;5033931;28;19992;-67
2021/03/17 01:20:23;;;;;;;;;;;;;;;3.21;67.09;98638.31;5019010;28;19959;-67
2021/03/17 01:22:48;;;;;;;;;;;;;;;3.25;67.38;98635.81;5017510;28;19925;-67
2021/03/17 01:25:16;;;;;;;;;;;;;;;3.21;67.50;98628.19;5019239;28;20151;-67
2021/03/17 01:27:41;;;;;;;;;;;;;;;3.20;67.67;98633.22;5018572;28;20186;-67
2021/03/17 01:30:07;;;;;;;;;;;;;;;3.21;67.35;98638.31;5019063;28;20016;-67
2021/03/17 01:32:33;;;;;;;;;;;;;;;3.22;67.70;98629.03;5048832;28;19932;-67
2021/03/17 01:34:58;;;;;;;;;;;;;;;3.23;67.41;98630.72;5019715;28;20265;-67
2021/03/17 01:37:23;;;;;;;;;;;;;;;3.23;67.18;98630.72;5018712;28;20302;-67
2021/03/17 01:39:48;;;;;;;;;;;;;;;3.23;67.03;98625.66;5018130;28;19921;-67
2021/03/17 01:42:14;;;;;;;;;;;;;;;3.30;66.80;98629.13;5017500;28;19925;-66
2021/03/17 01:44:39;;;;;;;;;;;;;;;3.35;66.61;98618.19;5018689;28;19932;-67
2021/03/17 01:47:04;;;;;;;;;;;;;;;3.30;66.68;98635.03;5018775;28;20242;-67
2021/03/17 01:49:30;;;;;;;;;;;;;;;3.32;66.24;98633.34;5017405;28;19918;-66
2021/03/17 01:51:55;;;;;;;;;;;;;;;3.39;66.20;98626.66;5017548;28;19917;-66
2021/03/17 01:54:20;;;;;;;;;;;;;;;3.35;66.64;98618.19;5017772;28;20157;-66
2021/03/17 01:56:46;;;;;;;;;;;;;;;3.40;66.05;98614.00;5017572;28;19924;-67
2021/03/17 01:59:11;;;;;;;;;;;;;;;3.42;66.27;98603.88;5014018;28;19921;-67
2021/03/17 02:01:36;;;;;;;;;;;;;;;3.50;65.38;98609.88;5016691;28;19932;-66
2021/03/17 02:04:03;;;;;;;;;;;;;;;3.54;65.59;98606.53;5032378;28;19930;-67
2021/03/17 02:06:28;;;;;;;;;;;;;;;3.51;65.11;98598.91;5016841;28;19952;-67
2021/03/17 02:08:53;;;;;;;;;;;;;;;3.56;65.13;98608.25;5016920;28;20299;-67
2021/03/17 02:11:18;;;;;;;;;;;;;;;3.63;64.59;98604.91;5015675;28;19932;-66
2021/03/17 02:13:44;;;;;;;;;;;;;;;3.55;65.17;98595.56;5018515;28;20000;-68
2021/03/17 02:16:12;;;;;;;;;;;;;;;3.57;65.09;98597.25;5016109;28;19914;-66
2021/03/17 02:18:56;;;;;;;;;;;;;;;3.50;65.40;98594.66;5016918;28;19917;-67
2021/03/17 02:21:40;;;;;;;;;;;;;;;3.43;65.34;98593.78;5016475;28;19913;-67
2021/03/17 02:24:24;;;;;;;;;;;;;;;3.41;65.85;98597.13;5018122;28;20179;-66
2021/03/17 02:27:06;;;;;;;;;;;;;;;3.39;65.91;98586.97;5016230;28;19918;-66
2021/03/17 02:29:32;;;;;;;;;;;;;;;3.43;66.00;98587.84;5016822;28;19917;-67
2021/03/17 02:32:06;;;;;;;;;;;;;;;3.40;66.13;98581.06;5016382;28;19925;-67
2021/03/17 02:34:35;;;;;;;;;;;;;;;3.43;65.89;98591.25;5017918;28;19972;-67
2021/03/17 02:37:03;;;;;;;;;;;;;;;3.43;66.67;98583.63;5015807;28;19972;-67
2021/03/17 02:39:41;;;;;;;;;;;;;;;3.50;65.84;98584.53;5017348;28;20448;-67
2021/03/17 02:42:06;;;;;;;;;;;;;;;3.51;66.39;98586.22;5016604;28;19921;-68
2021/03/17 02:44:32;;;;;;;;;;;;;;;3.44;66.23;98587.84;5017487;28;19925;-67
2021/03/17 02:47:00;;;;;;;;;;;;;;;3.45;66.43;98581.94;5016702;28;19936;-68
2021/03/17 02:49:27;;;;;;;;;;;;;;;3.46;66.23;98581.13;5016943;28;19913;-67
2021/03/17 02:51:58;;;;;;;;;;;;;;;3.49;66.12;98596.34;5017902;28;20032;-67
2021/03/17 02:54:24;;;;;;;;;;;;;;;3.49;66.50;98587.88;5017411;28;19913;-67
2021/03/17 02:56:56;;;;;;;;;;;;;;;3.52;66.35;98582.88;5016110;28;20092;-67
2021/03/17 02:59:23;;;;;;;;;;;;;;;3.47;66.09;98584.50;5015928;28;19948;-67
2021/03/17 03:01:49;;;;;;;;;;;;;;;3.46;66.09;98578.59;5016979;28;19925;-67
2021/03/17 03:04:15;;;;;;;;;;;;;;;3.56;65.77;98570.22;5016451;28;19971;-67
2021/03/17 03:06:43;;;;;;;;;;;;;;;3.55;65.82;98575.28;5015652;28;20340;-67
2021/03/17 03:09:09;;;;;;;;;;;;;;;3.47;65.76;98576.91;5016833;28;19917;-67
2021/03/17 03:11:35;;;;;;;;;;;;;;;3.36;66.29;98575.94;5016551;28;19913;-67
2021/03/17 03:14:02;;;;;;;;;;;;;;;3.42;65.55;98570.94;5016566;28;20068;-67
2021/03/17 03:16:27;;;;;;;;;;;;;;;3.35;66.17;98580.19;5015884;28;19996;-67
2021/03/17 03:18:53;;;;;;;;;;;;;;;3.33;65.87;98575.94;5017191;28;20263;-67
2021/03/17 03:21:19;;;;;;;;;;;;;;;3.39;65.68;98579.38;5013066;28;19913;-66
2021/03/17 03:23:46;;;;;;;;;;;;;;;3.37;65.94;98577.66;5016004;28;20278;-67
2021/03/17 03:26:12;;;;;;;;;;;;;;;3.39;66.55;98579.38;5016305;28;19917;-67
2021/03/17 03:28:37;;;;;;;;;;;;;;;3.38;66.35;98580.22;5016716;28;19955;-67
2021/03/17 03:31:03;;;;;;;;;;;;;;;3.42;66.16;98584.47;5015406;28;19918;-67
2021/03/17 03:33:30;;;;;;;;;;;;;;;3.41;67.47;98587.81;5015290;28;19963;-67
2021/03/17 03:35:55;;;;;;;;;;;;;;;3.39;67.10;98586.97;5016204;28;19914;-67
2021/03/17 03:38:22;;;;;;;;;;;;;;;3.39;66.85;98586.97;5016493;28;19921;-68
2021/03/17 03:40:47;;;;;;;;;;;;;;;3.42;67.48;98584.47;5015946;28;19925;-67
2021/03/17 03:43:12;;;;;;;;;;;;;;;3.41;66.73;98590.38;5012532;28;19936;-67
2021/03/17 03:45:39;;;;;;;;;;;;;;;3.30;67.45;98586.91;5016027;28;19928;-67
2021/03/17 03:48:05;;;;;;;;;;;;;;;3.17;67.63;98590.16;5014846;28;20303;-67
2021/03/17 03:50:32;;;;;;;;;;;;;;;3.11;67.50;98595.16;5016664;28;19998;-67
2021/03/17 03:53:06;;;;;;;;;;;;;;;3.08;68.12;98590.91;5015697;28;20011;-67
2021/03/17 03:55:46;;;;;;;;;;;;;;;3.00;68.37;98592.53;5016596;28;20242;-67
2021/03/17 03:58:12;;;;;;;;;;;;;;;2.92;68.68;98590.75;5017451;28;19913;-67
2021/03/17 04:00:40;;;;;;;;;;;;;;;2.86;68.36;98594.03;5014842;28;20270;-67
2021/03/17 04:03:07;;;;;;;;;;;;;;;2.85;69.07;98599.94;5028407;28;20333;-67
2021/03/17 04:05:34;;;;;;;;;;;;;;;2.77;68.77;98593.94;5016059;28;19921;-65
2021/03/17 04:08:04;;;;;;;;;;;;;;;2.68;69.13;98589.63;5015824;28;19987;-66
2021/03/17 04:10:30;;;;;;;;;;;;;;;2.69;68.97;98593.00;5015519;28;19914;-67
2021/03/17 04:12:56;;;;;;;;;;;;;;;2.66;69.35;98603.09;5015005;28;19932;-66
2021/03/17 04:15:23;;;;;;;;;;;;;;;2.64;69.56;98597.16;5017270;28;19932;-67
2021/03/17 04:17:51;;;;;;;;;;;;;;;2.72;69.02;98604.00;5030611;28;19937;-68
2021/03/17 04:20:20;;;;;;;;;;;;;;;2.74;68.37;98598.97;5015629;28;19913;-66
2021/03/17 04:22:47;;;;;;;;;;;;;;;2.81;68.09;98599.88;5013958;28;19921;-67
2021/03/17 04:25:14;;;;;;;;;;;;;;;2.88;67.43;98602.53;5014331;28;19913;-66
2021/03/17 04:27:43;;;;;;;;;;;;;;;2.94;66.98;98602.56;5015349;28;19967;-67
2021/03/17 04:30:09;;;;;;;;;;;;;;;2.96;66.31;98598.38;5014736;28;19914;-67
2021/03/17 04:32:36;;;;;;;;;;;;;;;2.85;66.37;98611.75;5017453;28;19924;-66
2021/03/17 04:35:02;;;;;;;;;;;;;;;3.00;65.54;98614.47;5018288;28;20231;-66
2021/03/17 04:37:31;;;;;;;;;;;;;;;2.97;64.58;98611.91;5019833;28;19976;-66
2021/03/17 04:39:57;;;;;;;;;;;;;;;2.98;65.46;98613.56;5019035;28;19921;-66
2021/03/17 04:42:22;;;;;;;;;;;;;;;2.91;65.36;98605.06;5017056;28;19992;-68
2021/03/17 04:44:48;;;;;;;;;;;;;;;2.94;65.39;98606.78;5018843;28;19941;-67
2021/03/17 04:47:14;;;;;;;;;;;;;;;2.91;65.35;98610.13;5014739;28;19988;-67
2021/03/17 04:49:43;;;;;;;;;;;;;;;2.85;66.10;98621.88;5015078;28;20376;-67
2021/03/17 04:52:10;;;;;;;;;;;;;;;2.96;65.36;98611.03;5019345;28;20309;-67
2021/03/17 04:54:35;;;;;;;;;;;;;;;2.96;65.86;98617.78;5018873;28;19945;-66
2021/03/17 04:57:00;;;;;;;;;;;;;;;3.00;65.34;98617.00;5013239;28;20014;-67
2021/03/17 04:59:26;;;;;;;;;;;;;;;3.03;64.81;98617.00;5017810;28;20388;-67
2021/03/17 05:01:52;;;;;;;;;;;;;;;3.04;65.02;98611.97;5018518;28;19925;-68
2021/03/17 05:04:18;;;;;;;;;;;;;;;3.04;65.52;98609.44;5018878;28;19926;-67
2021/03/17 05:06:44;;;;;;;;;;;;;;;2.96;66.03;98611.03;5019114;28;20281;-67
2021/03/17 05:09:10;;;;;;;;;;;;;;;2.98;65.96;98609.38;5017997;28;19960;-67
2021/03/17 05:11:36;;;;;;;;;;;;;;;3.00;65.95;98609.38;5019626;28;20014;-67
2021/03/17 05:14:02;;;;;;;;;;;;;;;2.97;65.98;98609.38;5018575;28;19913;-67
2021/03/17 05:16:27;;;;;;;;;;;;;;;2.97;65.66;98614.44;5019199;28;19921;-67
2021/03/17 05:18:53;;;;;;;;;;;;;;;2.88;66.09;98622.78;5017032;28;20012;-68
2021/03/17 05:21:18;;;;;;;;;;;;;;;2.89;66.08;98623.59;5020013;28;20284;-67
2021/03/17 05:23:44;;;;;;;;;;;;;;;2.84;65.62;98631.16;5019104;28;19970;-66
2021/03/17 05:26:10;;;;;;;;;;;;;;;2.88;65.95;98632.91;5018329;28;19917;-67
2021/03/17 05:28:35;;;;;;;;;;;;;;;2.92;66.20;98633.78;5018064;28;19928;-67
2021/03/17 05:31:01;;;;;;;;;;;;;;;2.91;66.11;98621.94;5018937;28;19917;-67
2021/03/17 05:33:28;;;;;;;;;;;;;;;2.93;65.94;98631.25;5032905;28;19953;-67
2021/03/17 05:35:54;;;;;;;;;;;;;;;2.90;66.10;98627.84;5017084;28;20004;-66
2021/03/17 05:38:19;;;;;;;;;;;;;;;2.94;66.27;98632.09;5014870;28;20153;-68
2021/03/17 05:40:45;;;;;;;;;;;;;;;3.00;65.73;98629.66;5018946;28;19925;-67
2021/03/17 05:43:10;;;;;;;;;;;;;;;3.14;65.17;98636.53;5017830;28;19925;-67
2021/03/17 05:45:36;;;;;;;;;;;;;;;3.18;65.36;98625.59;5014704;28;19918;-67
2021/03/17 05:48:02;;;;;;;;;;;;;;;3.23;64.73;98629.03;5019381;28;19996;-66
2021/03/17 05:50:28;;;;;;;;;;;;;;;3.27;64.65;98634.16;5018816;28;20004;-68
2021/03/17 05:52:53;;;;;;;;;;;;;;;3.28;63.97;98634.16;5018678;28;19929;-67
2021/03/17 05:55:19;;;;;;;;;;;;;;;3.42;64.06;98641.91;5017476;28;19988;-67
2021/03/17 05:57:44;;;;;;;;;;;;;;;3.37;63.74;98631.72;5015190;28;19967;-68
2021/03/17 06:00:11;;;;;;;;;;;;;;;3.44;64.16;98637.66;5017204;28;19917;-68
2021/03/17 06:02:37;;;;;;;;;;;;;;;3.44;63.56;98635.13;5018837;28;19914;-67
2021/03/17 06:05:03;;;;;;;;;;;;;;;3.46;63.77;98634.34;5017061;28;19981;-67
2021/03/17 06:07:33;;;;;;;;;;;;;;;3.49;63.73;98638.56;5018438;28;19921;-68
2021/03/17 06:10:01;;;;;;;;;;;;;;;3.65;63.52;98648.00;5018531;28;19972;-67
2021/03/17 06:12:28;;;;;;;;;;;;;;;3.81;63.45;98637.19;5016955;28;19922;-67
2021/03/17 06:14:55;;;;;;;;;;;;;;;3.79;62.70;98636.31;5017871;28;19975;-67
2021/03/17 06:17:23;;;;;;;;;;;;;;;3.89;62.74;98634.69;5018162;28;19922;-67
2021/03/17 06:19:50;;;;;;;;;;;;;;;3.85;63.04;98643.13;5018337;28;19921;-68
2021/03/17 06:22:16;;;;;;;;;;;;;;;3.85;62.55;98627.91;5017393;28;20282;-67
2021/03/17 06:24:41;;;;;;;;;;;;;;;3.85;62.79;98640.56;5017535;28;19928;-66
2021/03/17 06:27:07;;;;;;;;;;;;;;;3.79;62.96;98633.75;5017676;28;19921;-67
2021/03/17 06:29:32;;;;;;;;;;;;;;;3.88;63.43;98643.97;5018678;28;20278;-67
2021/03/17 06:31:58;;;;;;;;;;;;;;;3.99;62.93;98639.81;5015340;28;19917;-67
2021/03/17 06:34:23;;;;;;;;;;;;;;;4.06;63.09;98644.13;5017020;28;19972;-67
2021/03/17 06:36:52;;;;;;;;;;;;;;;4.23;62.74;98644.22;5017035;28;19929;-67
2021/03/17 06:39:19;;;;;;;;;;;;;;;4.02;62.36;98646.63;5017277;28;19917;-66
2021/03/17 06:41:52;;;;;;;;;;;;;;;4.13;62.22;98642.47;5016027;28;19980;-67
2021/03/17 06:44:24;;;;;;;;;;;;;;;4.24;62.38;98653.56;5017599;28;19930;-66
2021/03/17 06:47:08;;;;;;;;;;;;;;;4.32;62.34;98645.97;5016882;28;19917;-66
2021/03/17 06:49:35;;;;;;;;;;;;;;;4.35;62.13;98654.44;5017182;28;20225;-66
2021/03/17 06:52:21;;;;;;;;;;;;;;;4.33;61.61;98653.56;5016328;28;20012;-67
2021/03/17 06:55:05;;;;;;;;;;;;;;;4.35;61.53;98657.00;5017651;28;19918;-67
2021/03/17 06:57:30;;;;;;;;;;;;;;;4.28;62.04;98667.94;5014359;28;19921;-67
2021/03/17 07:00:15;;;;;;;;;;;;;;;4.31;61.90;98669.66;5015096;28;19931;-68
2021/03/17 07:02:40;;;;;;;;;;;;;;;4.26;61.97;98672.16;5015742;28;20273;-68
2021/03/17 07:05:06;;;;;;;;;;;;;;;4.42;61.94;98668.88;5017843;28;19917;-66
2021/03/17 07:07:44;;;;;;;;;;;;;;;4.40;61.97;98672.25;5017356;28;19921;-68
2021/03/17 07:10:10;;;;;;;;;;;;;;;4.49;61.48;98675.69;5015922;28;19917;-71
2021/03/17 07:12:35;;;;;;;;;;;;;;;4.76;61.10;98666.50;5015719;28;19928;-72
2021/03/17 07:15:07;;;;;;;;;;;;;;;4.88;61.24;98680.09;5017277;28;19929;-67
2021/03/17 07:17:33;;;;;;;;;;;;;;;4.74;61.72;98689.38;5016779;28;20024;-66
2021/03/17 07:19:58;;;;;;;;;;;;;;;4.21;63.49;98683.94;5011814;28;20012;-66
2021/03/17 07:22:24;;;;;;;;;;;;;;;4.02;64.74;98679.59;5017162;28;19963;-66
2021/03/17 07:24:53;;;;;;;;;;;;;;;3.91;65.46;98692.19;5016942;28;19926;-66
2021/03/17 07:27:22;;;;;;;;;;;;;;;3.79;65.50;98689.53;5016696;28;19917;-67
2021/03/17 07:30:00;;;;;;;;;;;;;;;3.87;65.83;98690.47;5015256;28;19921;-66
2021/03/17 07:32:25;;;;;;;;;;;;;;;3.80;65.14;98693.78;5015998;28;19917;-67
2021/03/17 07:34:51;;;;;;;;;;;;;;;3.84;64.79;98695.50;5012816;28;19922;-67
2021/03/17 07:37:16;;;;;;;;;;;;;;;4.15;65.23;98694.06;5016980;28;20160;-67
2021/03/17 07:39:42;;;;;;;;;;;;;;;4.40;63.74;98695.09;5016498;28;19924;-67
2021/03/17 07:42:12;;;;;;;;;;;;;;;4.68;63.19;98696.09;5013780;28;19940;-66
2021/03/17 07:44:39;;;;;;;;;;;;;;;5.04;62.14;98704.75;5015620;28;19936;-67
2021/03/17 07:47:08;;;;;;;;;;;;;;;5.18;61.82;98692.06;5017532;28;19929;-65
2021/03/17 07:49:34;;;;;;;;;;;;;;;5.27;62.23;98702.28;5015547;28;19921;-65
2021/03/17 07:52:00;;;;;;;;;;;;;;;4.97;63.02;98712.31;5016081;28;19949;-66
2021/03/17 07:54:25;;;;;;;;;;;;;;;4.72;64.28;98701.19;5016154;28;19928;-66
2021/03/17 07:56:51;;;;;;;;;;;;;;;4.63;64.72;98700.28;5017064;28;20189;-67
2021/03/17 07:59:17;;;;;;;;;;;;;;;4.55;63.96;98698.56;5017166;28;20195;-67
2021/03/17 08:01:43;;;;;;;;;;;;;;;4.61;63.94;98697.75;5016620;28;19917;-67
2021/03/17 08:04:08;;;;;;;;;;;;;;;4.95;63.34;98691.16;5014923;28;19987;-67
2021/03/17 08:06:34;;;;;;;;;;;;;;;5.14;63.50;98687.81;5017616;28;19914;-67
2021/03/17 08:08:59;;;;;;;;;;;;;;;5.35;62.61;98684.50;5015934;28;19917;-67
2021/03/17 08:11:25;;;;;;;;;;;;;;;5.10;62.12;98686.13;5048672;28;19914;-66
2021/03/17 08:13:51;;;;;;;;;;;;;;;4.88;62.05;98676.75;5015614;28;19976;-66
2021/03/17 08:16:18;;;;;;;;;;;;;;;4.95;62.25;98673.38;5016938;28;20007;-66
2021/03/17 08:18:44;;;;;;;;;;;;;;;5.20;61.02;98684.47;5013867;28;19947;-66
2021/03/17 08:21:10;;;;;;;;;;;;;;;5.23;60.47;98677.69;5014143;28;19918;-65
2021/03/17 08:23:40;;;;;;;;;;;;;;;5.17;59.58;98681.91;5015051;28;20284;-66
2021/03/17 08:26:06;;;;;;;;;;;;;;;5.15;59.75;98689.53;5013277;28;19921;-64
2021/03/17 08:28:44;;;;;;;;;;;;;;;4.98;60.08;98675.91;5013716;28;20226;-65
2021/03/17 08:31:09;;;;;;;;;;;;;;;5.05;59.44;98678.47;5014270;28;20190;-66
2021/03/17 08:33:39;;;;;;;;;;;;;;;4.89;59.74;98669.09;5014732;28;19922;-62
2021/03/17 08:36:06;;;;;;;;;;;;;;;4.99;58.55;98683.56;5030296;28;20016;-66
2021/03/17 08:38:43;;;;;;;;;;;;;;;5.08;59.11;98682.75;5013169;28;19921;-67
2021/03/17 08:41:09;;;;;;;;;;;;;;;5.19;58.64;98675.97;5016579;28;19926;-67
2021/03/17 08:43:34;;;;;;;;;;;;;;;5.46;57.92;98678.59;5017041;28;19944;-66
2021/03/17 08:46:05;;;;;;;;;;;;;;;5.56;55.80;98687.06;5016348;28;19924;-66
2021/03/17 08:48:52;;;;;;;;;;;;;;;5.63;56.28;98682.88;5014419;28;20217;-67
2021/03/17 08:51:17;;;;;;;;;;;;;;;5.28;56.42;98687.88;5015438;28;20336;-66
2021/03/17 08:53:42;;;;;;;;;;;;;;;5.20;56.54;98687.84;5014042;28;19917;-66
2021/03/17 08:56:27;;;;;;;;;;;;;;;5.13;56.78;98682.75;5015831;28;20184;-66
2021/03/17 08:59:13;;;;;;;;;;;;;;;5.19;57.13;98681.06;5014042;28;19960;-66
2021/03/17 09:01:38;;;;;;;;;;;;;;;5.89;55.84;98682.09;5014220;28;19924;-66
2021/03/17 09:04:03;;;;;;;;;;;;;;;6.00;55.99;98684.63;5016437;28;20436;-66
2021/03/17 09:06:29;;;;;;;;;;;;;;;6.17;54.14;98680.38;5015711;28;19964;-67
2021/03/17 09:09:27;;;;;;;;;;;;;;;6.01;54.21;98675.28;5030499;28;20207;-67
2021/03/17 09:11:52;;;;;;;;;;;;;;;5.79;55.36;98684.56;4996569;28;20279;-66
2021/03/17 09:14:22;;;;;;;;;;;;;;;5.82;55.66;98680.34;5012965;28;19921;-66
2021/03/17 09:17:08;;;;;;;;;;;;;;;5.60;55.71;98676.06;5012721;28;19933;-65
2021/03/17 09:19:52;;;;;;;;;;;;;;;5.53;54.96;98661.66;5017250;28;20016;-66
2021/03/17 09:22:36;;;;;;;;;;;;;;;5.50;55.33;98666.75;5019486;28;20416;-66
2021/03/17 09:25:21;;;;;;;;;;;;;;;5.65;55.28;98671.00;5018561;28;19926;-65
2021/03/17 09:27:51;;;;;;;;;;;;;;;5.50;55.75;98670.13;5018455;28;20160;-66
2021/03/17 09:30:17;;;;;;;;;;;;;;;5.34;56.76;98658.25;5018519;28;19917;-63
2021/03/17 09:32:43;;;;;;;;;;;;;;;5.29;57.78;98670.09;5017236;28;19947;-63
2021/03/17 09:35:09;;;;;;;;;;;;;;;5.19;56.91;98678.53;5018080;28;19926;-63
2021/03/17 09:37:34;;;;;;;;;;;;;;;5.31;56.47;98665.84;5018694;28;20279;-63
2021/03/17 09:40:00;;;;;;;;;;;;;;;5.78;55.97;98655.75;5017652;28;19921;-66
2021/03/17 09:42:25;;;;;;;;;;;;;;;5.75;55.03;98645.56;5015296;28;19944;-66
2021/03/17 09:44:57;;;;;;;;;;;;;;;6.18;54.73;98658.31;5018860;28;19932;-64
2021/03/17 09:47:29;;;;;;;;;;;;;;;5.93;57.03;98670.22;5018908;28;19922;-64
2021/03/17 09:49:55;;;;;;;;;;;;;;;5.34;58.23;98677.72;5017726;28;19914;-64
2021/03/17 09:52:20;;;;;;;;;;;;;;;5.44;59.08;98665.03;5009860;28;19936;-64
2021/03/17 09:54:45;;;;;;;;;;;;;;;5.39;58.08;98663.31;5019156;28;19967;-64
2021/03/17 09:57:11;;;;;;;;;;;;;;;5.41;57.81;98657.41;5017632;28;20290;-64
2021/03/17 09:59:40;;;;;;;;;;;;;;;5.77;57.27;98666.75;5017373;28;19932;-66
2021/03/17 10:02:10;;;;;;;;;;;;;;;6.15;56.90;98669.34;5018182;28;19917;-67
2021/03/17 10:04:43;;;;;;;;;;;;;;;6.49;54.53;98662.50;5018968;28;19925;-68
2021/03/17 10:07:19;;;;;;;;;;;;;;;6.08;56.14;98662.56;5018688;28;19960;-68
2021/03/17 10:09:45;;;;;;;;;;;;;;;5.80;57.46;98671.03;5017509;28;20318;-67
2021/03/17 10:12:12;;;;;;;;;;;;;;;5.83;57.38;98671.00;5018384;28;19913;-68
2021/03/17 10:14:44;;;;;;;;;;;;;;;5.52;59.29;98677.75;5032844;28;19933;-67
2021/03/17 10:17:09;;;;;;;;;;;;;;;5.43;60.77;98659.97;5017065;28;19921;-67
2021/03/17 10:19:35;;;;;;;;;;;;;;;5.18;59.70;98669.19;5015688;28;19925;-66
2021/03/17 10:22:01;;;;;;;;;;;;;;;5.17;60.55;98670.06;5017881;28;19914;-66
2021/03/17 10:24:32;;;;;;;;;;;;;;;5.00;60.63;98659.00;5018672;28;19922;-66
2021/03/17 10:26:57;;;;;;;;;;;;;;;5.37;60.51;98649.78;5017218;28;19931;-69
2021/03/17 10:29:23;;;;;;;;;;;;;;;5.80;60.13;98646.44;5014407;28;20253;-66
2021/03/17 10:31:50;;;;;;;;;;;;;;;5.93;58.16;98670.22;5016623;28;19925;-66
2021/03/17 10:34:15;;;;;;;;;;;;;;;6.08;57.12;98649.84;5016131;28;19944;-66
2021/03/17 10:36:41;;;;;;;;;;;;;;;5.99;55.28;98649.84;5017253;28;19929;-66
2021/03/17 10:39:06;;;;;;;;;;;;;;;6.42;54.36;98643.84;5014311;28;19972;-67
2021/03/17 10:41:42;;;;;;;;;;;;;;;6.33;52.22;98648.94;5017549;28;19921;-67
2021/03/17 10:44:12;;;;;;;;;;;;;;;6.64;52.86;98647.19;5017963;28;20221;-67
2021/03/17 10:46:55;;;;;;;;;;;;;;;6.42;52.09;98637.91;5015760;28;19926;-68
2021/03/17 10:49:21;;;;;;;;;;;;;;;6.36;51.49;98648.13;5015660;28;20293;-67
2021/03/17 10:51:56;;;;;;;;;;;;;;;6.16;50.61;98637.09;5018040;28;20004;-66
2021/03/17 10:54:32;;;;;;;;;;;;;;;6.65;50.83;98630.19;5017508;28;19932;-68
2021/03/17 10:56:58;;;;;;;;;;;;;;;6.80;50.74;98637.78;5016807;28;19921;-65
2021/03/17 10:59:28;;;;;;;;;;;;;;;6.78;50.35;98634.41;5016949;28;20297;-67
2021/03/17 11:02:12;;;;;;;;;;;;;;;6.68;50.58;98635.28;5016968;28;19917;-67
2021/03/17 11:04:37;;;;;;;;;;;;;;;6.83;50.50;98641.16;5016644;28;19929;-68
2021/03/17 11:07:02;;;;;;;;;;;;;;;7.12;50.38;98642.75;5014015;28;19936;-67
2021/03/17 11:09:37;;;;;;;;;;;;;;;6.78;49.42;98629.31;5015383;28;20008;-67
2021/03/17 11:12:10;;;;;;;;;;;;;;;6.99;46.69;98623.25;5016500;28;19914;-68
2021/03/17 11:14:36;;;;;;;;;;;;;;;7.26;45.97;98608.66;5015941;28;20221;-67
2021/03/17 11:17:05;;;;;;;;;;;;;;;7.33;46.44;98614.56;5016458;28;20275;-67
2021/03/17 11:19:30;;;;;;;;;;;;;;;7.33;46.62;98623.06;5031286;28;20218;-66
2021/03/17 11:21:56;;;;;;;;;;;;;;;7.22;50.07;98626.53;5017631;28;20194;-68
2021/03/17 11:24:22;;;;;;;;;;;;;;;7.00;47.89;98612.22;5016533;28;19921;-67
2021/03/17 11:26:49;;;;;;;;;;;;;;;6.82;47.60;98615.69;5014176;28;19932;-67
2021/03/17 11:29:14;;;;;;;;;;;;;;;6.96;45.69;98624.09;5015971;28;20390;-67
2021/03/17 11:31:40;;;;;;;;;;;;;;;6.79;43.72;98620.78;5016723;28;19921;-66
2021/03/17 11:34:06;;;;;;;;;;;;;;;6.72;42.09;98614.88;5016721;28;20275;-67
2021/03/17 11:36:32;;;;;;;;;;;;;;;7.00;41.75;98607.94;5017572;28;20140;-66
2021/03/17 11:38:58;;;;;;;;;;;;;;;7.27;42.02;98610.34;5016952;28;19922;-66
2021/03/17 11:41:23;;;;;;;;;;;;;;;7.27;42.17;98606.94;5015181;28;19925;-67
2021/03/17 11:43:49;;;;;;;;;;;;;;;6.92;43.60;98609.69;5017029;28;19921;-66
2021/03/17 11:46:14;;;;;;;;;;;;;;;7.20;42.76;98610.41;5017420;28;19968;-67
2021/03/17 11:48:40;;;;;;;;;;;;;;;7.24;41.97;98606.97;5015417;28;19928;-66
2021/03/17 11:51:06;;;;;;;;;;;;;;;7.55;41.67;98612.72;5016374;28;20006;-66
2021/03/17 11:53:32;;;;;;;;;;;;;;;7.39;42.49;98609.41;5015543;28;20359;-66
2021/03/17 11:55:58;;;;;;;;;;;;;;;7.35;42.58;98602.63;5015090;28;20066;-66
2021/03/17 11:58:24;;;;;;;;;;;;;;;7.28;42.34;98601.84;5014960;28;20032;-67
2021/03/17 12:00:49;;;;;;;;;;;;;;;7.46;42.35;98612.78;5014927;28;19917;-66
2021/03/17 12:03:14;;;;;;;;;;;;;;;7.31;40.97;98617.13;5013049;28;20076;-66
2021/03/17 12:05:41;;;;;;;;;;;;;;;7.02;41.87;98597.75;5014140;28;19922;-66
2021/03/17 12:08:07;;;;;;;;;;;;;;;7.47;41.61;98604.28;5015880;28;19936;-65
2021/03/17 12:10:33;;;;;;;;;;;;;;;7.77;41.43;98594.66;5015906;28;20255;-65
2021/03/17 12:12:58;;;;;;;;;;;;;;;7.67;41.32;98599.88;5014814;28;20100;-67
2021/03/17 12:15:25;;;;;;;;;;;;;;;7.95;41.26;98592.81;5016514;28;19937;-65
2021/03/17 12:17:51;;;;;;;;;;;;;;;8.19;40.33;98607.88;5009771;28;19918;-68
2021/03/17 12:20:17;;;;;;;;;;;;;;;8.04;40.38;98593.56;5014885;28;19929;-68
2021/03/17 12:22:43;;;;;;;;;;;;;;;8.28;40.09;98583.09;5013901;28;19925;-68
2021/03/17 12:25:09;;;;;;;;;;;;;;;8.23;39.40;98589.16;5015801;28;19960;-69
2021/03/17 12:27:34;;;;;;;;;;;;;;;7.91;39.72;98596.25;5015994;28;19940;-67
2021/03/17 12:30:02;;;;;;;;;;;;;;;7.74;40.77;98586.19;5015946;28;20361;-66
2021/03/17 12:32:27;;;;;;;;;;;;;;;7.83;40.21;98586.13;5015997;28;20253;-67
2021/03/17 12:34:52;;;;;;;;;;;;;;;8.02;39.29;98586.81;5012806;28;19921;-68
2021/03/17 12:37:18;;;;;;;;;;;;;;;8.07;40.04;98593.53;5016244;28;19925;-66
2021/03/17 12:39:43;;;;;;;;;;;;;;;8.14;40.07;98584.13;5015840;28;19955;-65
2021/03/17 12:42:08;;;;;;;;;;;;;;;8.15;38.93;98586.66;5014495;28;20032;-68
2021/03/17 12:44:34;;;;;;;;;;;;;;;7.92;38.35;98583.47;5014022;28;19930;-67
2021/03/17 12:47:00;;;;;;;;;;;;;;;7.91;38.71;98584.34;5014678;28;19925;-68
2021/03/17 12:49:26;;;;;;;;;;;;;;;7.91;38.28;98583.50;5012152;28;19913;-67
2021/03/17 12:51:52;;;;;;;;;;;;;;;7.88;39.07;98580.97;5046745;28;19968;-66
2021/03/17 12:54:17;;;;;;;;;;;;;;;7.84;38.91;98585.25;5019878;28;19971;-67
2021/03/17 12:56:42;;;;;;;;;;;;;;;7.97;38.56;98584.28;5012597;28;20271;-67
2021/03/17 12:59:07;;;;;;;;;;;;;;;7.81;38.65;98587.81;5018542;28;19956;-67